createdAt,value
2018-10-09T00:01:45.199Z,49.17
2018-10-09T00:04:13.570Z,41.37
2018-10-09T00:06:41.954Z,35.77
2018-10-09T00:09:10.935Z,33.00
2018-10-09T00:11:39.318Z,32.13
2018-10-09T00:14:07.695Z,34.27
2018-10-09T00:16:36.099Z,35.07
2018-10-09T00:19:04.494Z,38.87
2018-10-09T00:21:32.984Z,36.90
2018-10-09T00:24:01.345Z,32.37
2018-10-09T00:26:29.718Z,31.33
2018-10-09T00:28:58.070Z,28.87
2018-10-09T00:31:26.458Z,27.97
2018-10-09T00:33:54.813Z,27.73
2018-10-09T00:36:23.187Z,25.50
2018-10-09T00:38:51.550Z,24.27
2018-10-09T00:41:19.922Z,23.23
2018-10-09T00:43:48.290Z,23.17
2018-10-09T00:46:16.745Z,22.60
2018-10-09T00:48:45.126Z,23.07
2018-10-09T00:51:13.513Z,22.03
2018-10-09T00:53:41.859Z,20.17
2018-10-09T00:56:10.551Z,19.83
2018-10-09T00:58:38.914Z,20.10
2018-10-09T01:01:07.496Z,19.07
2018-10-09T01:03:35.863Z,19.53
2018-10-09T01:06:04.246Z,18.00
2018-10-09T01:08:32.599Z,17.77
2018-10-09T01:11:01.241Z,18.00
2018-10-09T01:13:29.814Z,16.60
2018-10-09T01:15:58.202Z,15.53
2018-10-09T01:18:26.554Z,16.10
2018-10-09T01:20:55.010Z,15.63
2018-10-09T01:23:23.387Z,15.43
2018-10-09T01:25:51.742Z,14.97
2018-10-09T01:28:20.119Z,14.50
2018-10-09T01:30:48.504Z,13.87
2018-10-09T01:33:16.861Z,13.63
2018-10-09T01:35:45.259Z,13.50
2018-10-09T01:38:13.623Z,13.83
2018-10-09T01:40:41.986Z,12.60
2018-10-09T01:43:10.374Z,11.90
2018-10-09T01:45:38.746Z,12.30
2018-10-09T01:48:07.153Z,11.60
2018-10-09T01:50:35.497Z,11.03
2018-10-09T01:53:03.978Z,10.87
2018-10-09T01:55:32.330Z,9.97
2018-10-09T01:58:00.839Z,9.93
2018-10-09T02:00:29.207Z,10.17
2018-10-09T02:02:57.566Z,9.77
2018-10-09T02:05:25.958Z,9.53
2018-10-09T02:07:54.329Z,8.87
2018-10-09T02:10:22.714Z,8.90
2018-10-09T02:12:51.102Z,8.67
2018-10-09T02:15:19.472Z,8.40
2018-10-09T02:17:47.825Z,8.13
2018-10-09T02:20:16.472Z,8.77
2018-10-09T02:22:44.866Z,7.93
2018-10-09T02:25:13.242Z,7.97
2018-10-09T02:27:41.605Z,7.13
2018-10-09T02:30:10.567Z,7.20
2018-10-09T02:32:38.935Z,6.97
2018-10-09T02:35:07.310Z,6.93
2018-10-09T02:37:35.665Z,5.90
2018-10-09T02:40:04.219Z,6.70
2018-10-09T02:42:32.630Z,6.47
2018-10-09T02:45:01.030Z,7.00
2018-10-09T02:47:29.408Z,6.10
2018-10-09T02:49:57.765Z,5.83
2018-10-09T02:52:26.147Z,5.53
2018-10-09T02:54:54.505Z,6.07
2018-10-09T02:57:22.905Z,6.03
2018-10-09T02:59:51.318Z,5.77
2018-10-09T03:02:19.677Z,5.77
2018-10-09T03:04:48.062Z,5.07
2018-10-09T03:07:16.515Z,5.60
2018-10-09T03:09:44.890Z,5.03
2018-10-09T03:12:13.246Z,5.30
2018-10-09T03:14:41.618Z,4.80
2018-10-09T03:17:09.972Z,4.63
2018-10-09T03:19:38.343Z,4.70
2018-10-09T03:22:06.722Z,4.77
2018-10-09T03:24:35.099Z,4.37
2018-10-09T03:27:03.479Z,4.63
2018-10-09T03:29:31.863Z,4.33
2018-10-09T03:32:00.227Z,4.47
2018-10-09T03:34:28.593Z,3.60
2018-10-09T03:36:56.964Z,5.00
2018-10-09T03:39:25.327Z,4.13
2018-10-09T03:41:53.682Z,3.90
2018-10-09T03:44:22.078Z,3.70
2018-10-09T03:46:50.433Z,3.67
2018-10-09T03:49:18.790Z,3.93
2018-10-09T03:51:47.426Z,3.73
2018-10-09T03:54:15.970Z,3.67
2018-10-09T03:56:44.349Z,3.60
2018-10-09T03:59:12.846Z,3.70
2018-10-09T04:01:41.506Z,3.30
2018-10-09T04:04:09.871Z,3.57
2018-10-09T04:06:38.258Z,3.90
2018-10-09T04:09:10.128Z,3.80
2018-10-09T04:11:38.422Z,3.10
2018-10-09T04:14:07.003Z,3.57
2018-10-09T04:16:35.346Z,3.00
2018-10-09T04:19:03.710Z,3.43
2018-10-09T04:21:32.078Z,3.33
2018-10-09T04:24:00.457Z,3.27
2018-10-09T04:26:28.802Z,3.27
2018-10-09T04:28:57.242Z,3.00
2018-10-09T04:31:25.598Z,3.40
2018-10-09T04:33:53.974Z,3.00
2018-10-09T04:36:22.359Z,3.20
2018-10-09T04:38:50.710Z,2.97
2018-10-09T04:41:19.077Z,3.27
2018-10-09T04:43:47.472Z,3.13
2018-10-09T04:46:15.833Z,3.83
2018-10-09T04:48:44.204Z,3.60
2018-10-09T04:51:12.578Z,3.60
2018-10-09T04:53:40.946Z,3.00
2018-10-09T04:56:09.329Z,3.27
2018-10-09T04:58:37.695Z,2.97
2018-10-09T05:01:06.126Z,3.30
2018-10-09T05:03:34.534Z,2.90
2018-10-09T05:06:02.939Z,2.90
2018-10-09T05:08:31.299Z,3.00
2018-10-09T05:10:59.649Z,3.00
2018-10-09T05:13:28.023Z,3.43
2018-10-09T05:15:56.387Z,3.03
2018-10-09T05:18:24.757Z,3.90
2018-10-09T05:20:53.130Z,3.53
2018-10-09T05:23:21.548Z,3.30
2018-10-09T05:25:49.866Z,3.30
2018-10-09T05:28:18.234Z,3.20
2018-10-09T05:30:46.610Z,3.07
2018-10-09T05:33:15.119Z,3.07
2018-10-09T05:35:43.478Z,3.30
2018-10-09T05:38:11.986Z,3.00
2018-10-09T05:40:40.359Z,3.03
2018-10-09T05:43:08.756Z,3.20
2018-10-09T05:45:39.898Z,3.20
2018-10-09T05:48:09.383Z,3.40
2018-10-09T05:50:37.780Z,3.50
2018-10-09T05:53:06.191Z,3.10
2018-10-09T05:55:35.031Z,3.13
2018-10-09T05:58:03.446Z,3.20
2018-10-09T06:00:32.047Z,2.90
2018-10-09T06:03:00.698Z,3.30
2018-10-09T06:05:29.366Z,3.03
2018-10-09T06:07:57.750Z,3.07
2018-10-09T06:10:26.127Z,3.30
2018-10-09T06:12:54.560Z,3.27
2018-10-09T06:15:22.982Z,3.23
2018-10-09T06:17:51.350Z,3.07
2018-10-09T06:20:19.732Z,3.37
2018-10-09T06:22:48.251Z,3.43
2018-10-09T06:25:16.632Z,3.30
2018-10-09T06:27:45.166Z,3.73
2018-10-09T06:30:14.291Z,3.37
2018-10-09T06:32:42.962Z,3.40
2018-10-09T06:35:12.520Z,3.10
2018-10-09T06:37:41.136Z,3.57
2018-10-09T06:40:11.078Z,2.90
2018-10-09T06:42:39.793Z,3.20
2018-10-09T06:45:08.390Z,3.03
2018-10-09T06:47:37.714Z,3.63
2018-10-09T06:50:06.375Z,3.70
2018-10-09T06:52:35.681Z,31.10
2018-10-09T06:55:04.457Z,35.57
2018-10-09T06:57:33.047Z,39.63
2018-10-09T07:00:02.887Z,42.23
2018-10-09T07:02:32.036Z,38.23
2018-10-09T07:05:01.392Z,39.87
2018-10-09T07:07:30.843Z,40.67
2018-10-09T07:10:00.054Z,40.20
2018-10-09T07:12:29.272Z,38.50
2018-10-09T07:14:59.190Z,36.80
2018-10-09T07:17:28.687Z,36.73
2018-10-09T07:19:57.961Z,35.70
2018-10-09T07:22:27.260Z,35.13
2018-10-09T07:24:56.087Z,33.70
2018-10-09T07:27:24.924Z,39.57
2018-10-09T07:29:53.609Z,56.77
2018-10-09T07:32:22.333Z,58.80
2018-10-09T07:34:50.911Z,53.00
2018-10-09T07:37:19.474Z,53.87
2018-10-09T07:39:48.107Z,56.30
2018-10-09T07:42:16.747Z,52.40
2018-10-09T07:44:45.381Z,53.97
2018-10-09T07:47:15.505Z,56.13
2018-10-09T07:49:44.255Z,54.73
2018-10-09T07:52:13.570Z,49.37
2018-10-09T07:54:42.199Z,34.17
2018-10-09T07:57:12.372Z,44.47
2018-10-09T07:59:41.678Z,39.97
2018-10-09T08:02:10.944Z,49.93
2018-10-09T08:04:40.664Z,50.03
2018-10-09T08:07:09.912Z,49.23
2018-10-09T08:09:38.540Z,47.63
2018-10-09T08:12:07.819Z,48.70
2018-10-09T08:14:36.631Z,42.53
2018-10-09T08:17:05.930Z,47.97
2018-10-09T08:19:34.516Z,40.40
2018-10-09T08:22:03.151Z,41.10
2018-10-09T08:24:31.975Z,42.33
2018-10-09T08:27:00.591Z,39.97
2018-10-09T08:29:29.247Z,40.87
2018-10-09T08:31:58.347Z,38.73
2018-10-09T08:34:27.491Z,48.00
2018-10-09T08:36:56.854Z,37.27
2018-10-09T08:39:25.543Z,55.90
2018-10-09T08:41:54.217Z,44.00
2018-10-09T08:44:22.777Z,41.43
2018-10-09T08:46:52.181Z,33.57
2018-10-09T08:49:20.829Z,30.97
2018-10-09T08:51:49.507Z,33.57
2018-10-09T08:54:18.119Z,32.27
2018-10-09T08:56:48.063Z,30.57
2018-10-09T08:59:17.256Z,28.50
2018-10-09T09:01:45.823Z,24.97
2018-10-09T09:04:14.511Z,25.17
2018-10-09T09:06:43.127Z,29.67
2018-10-09T09:09:12.791Z,28.33
2018-10-09T09:11:41.343Z,25.53
2018-10-09T09:14:10.619Z,24.87
2018-10-09T09:16:39.166Z,23.37
2018-10-09T09:19:09.364Z,24.73
2018-10-09T09:21:38.220Z,22.07
2018-10-09T09:24:07.558Z,30.80
2018-10-09T09:26:36.272Z,26.47
2018-10-09T09:29:05.375Z,27.63
2018-10-09T09:31:34.313Z,25.03
2018-10-09T09:34:02.975Z,24.60
2018-10-09T09:36:32.909Z,26.10
2018-10-09T09:39:01.924Z,25.40
2018-10-09T09:41:30.562Z,25.33
2018-10-09T09:43:59.383Z,26.83
2018-10-09T09:46:28.479Z,31.90
2018-10-09T09:48:58.581Z,30.00
2018-10-09T09:51:27.763Z,29.03
2018-10-09T09:53:57.052Z,27.20
2018-10-09T09:56:26.364Z,24.70
2018-10-09T09:58:55.239Z,23.40
2018-10-09T10:01:28.738Z,23.97
2018-10-09T10:03:57.323Z,21.97
2018-10-09T10:06:25.875Z,22.33
2018-10-09T10:08:56.276Z,20.87
2018-10-09T10:11:25.073Z,19.27
2018-10-09T10:13:53.605Z,18.37
2018-10-09T10:16:22.485Z,18.77
2018-10-09T10:18:51.226Z,18.27
2018-10-09T10:21:20.569Z,19.93
2018-10-09T10:23:49.215Z,17.17
2018-10-09T10:26:17.919Z,16.30
2018-10-09T10:28:47.243Z,16.17
2018-10-09T10:31:17.612Z,15.70
2018-10-09T10:33:46.192Z,14.03
2018-10-09T10:36:15.030Z,14.07
2018-10-09T10:38:43.835Z,12.60
2018-10-09T10:41:12.583Z,29.03
2018-10-09T10:43:41.315Z,39.00
2018-10-09T10:46:10.283Z,34.17
2018-10-09T10:48:50.609Z,30.90
2018-10-09T10:51:19.165Z,27.90
2018-10-09T10:53:47.872Z,26.30
2018-10-09T10:56:16.445Z,23.83
2018-10-09T10:58:45.200Z,24.40
2018-10-09T11:01:14.472Z,26.07
2018-10-09T11:03:44.287Z,60.20
2018-10-09T11:06:12.955Z,62.03
2018-10-09T11:08:44.233Z,51.53
2018-10-09T11:11:12.999Z,51.88
2018-10-09T11:13:41.615Z,45.00
2018-10-09T11:16:10.319Z,65.17
2018-10-09T11:18:39.229Z,69.10
2018-10-09T11:21:08.876Z,79.07
2018-10-09T11:23:37.557Z,61.53
2018-10-09T11:26:06.181Z,61.90
2018-10-09T11:28:35.527Z,57.53
2018-10-09T11:31:04.343Z,53.67
2018-10-09T11:33:32.967Z,50.23
2018-10-09T11:36:03.245Z,48.00
2018-10-09T11:38:31.852Z,46.47
2018-10-09T11:41:00.492Z,43.73
2018-10-09T11:43:29.139Z,42.33
2018-10-09T11:45:59.229Z,39.53
2018-10-09T11:48:27.858Z,38.97
2018-10-09T11:50:56.507Z,37.60
2018-10-09T11:53:25.795Z,36.37
2018-10-09T11:55:54.394Z,43.87
2018-10-09T11:58:23.107Z,39.10
2018-10-09T12:00:54.324Z,39.57
2018-10-09T12:03:22.895Z,36.77
2018-10-09T12:05:51.709Z,34.87
2018-10-09T12:08:20.205Z,32.43
2018-10-09T12:10:49.040Z,30.23
2018-10-09T12:13:17.843Z,29.10
2018-10-09T12:15:46.467Z,29.13
2018-10-09T12:18:15.738Z,37.13
2018-10-09T12:20:45.023Z,65.43
2018-10-09T12:23:13.612Z,54.40
2018-10-09T12:25:43.982Z,48.53
2018-10-09T12:28:12.584Z,44.80
2018-10-09T12:30:41.211Z,43.27
2018-10-09T12:33:11.171Z,41.03
2018-10-09T12:35:40.980Z,40.20
2018-10-09T12:38:09.591Z,47.90
2018-10-09T12:40:38.712Z,49.30
2018-10-09T12:43:07.558Z,50.93
2018-10-09T12:45:36.689Z,51.27
2018-10-09T12:48:05.347Z,64.77
2018-10-09T12:50:34.450Z,57.80
2018-10-09T12:53:03.085Z,52.60
2018-10-09T12:55:32.487Z,49.37
2018-10-09T12:58:01.280Z,45.90
2018-10-09T13:00:30.109Z,42.70
2018-10-09T13:02:59.512Z,42.97
2018-10-09T13:05:28.235Z,40.33
2018-10-09T13:07:56.839Z,37.27
2018-10-09T13:10:25.480Z,35.37
2018-10-09T13:12:54.928Z,34.33
2018-10-09T13:15:23.717Z,36.13
2018-10-09T13:17:53.195Z,32.47
2018-10-09T13:20:21.845Z,34.23
2018-10-09T13:22:50.553Z,37.50
2018-10-09T13:25:19.189Z,52.77
2018-10-09T13:27:47.771Z,58.87
2018-10-09T13:30:17.747Z,50.30
2018-10-09T13:32:46.492Z,46.60
2018-10-09T13:35:15.208Z,44.60
2018-10-09T13:37:44.470Z,43.47
2018-10-09T13:40:13.404Z,41.17
2018-10-09T13:42:42.834Z,39.73
2018-10-09T13:45:11.614Z,37.40
2018-10-09T13:47:40.922Z,34.90
2018-10-09T13:50:09.479Z,33.27
2018-10-09T13:52:38.591Z,30.60
2018-10-09T13:55:07.371Z,28.27
2018-10-09T13:57:36.614Z,28.20
2018-10-09T14:00:05.380Z,26.67
2018-10-09T14:02:34.454Z,26.10
2018-10-09T14:05:03.192Z,24.73
2018-10-09T14:07:31.888Z,24.00
2018-10-09T14:10:01.288Z,23.50
2018-10-09T14:12:29.912Z,22.43
2018-10-09T14:14:59.261Z,22.23
2018-10-09T14:17:27.815Z,21.30
2018-10-09T14:19:56.510Z,20.97
2018-10-09T14:22:26.349Z,22.70
2018-10-09T14:24:54.952Z,21.23
2018-10-09T14:27:24.442Z,26.17
2018-10-09T14:29:53.835Z,27.93
2018-10-09T14:32:22.536Z,26.20
2018-10-09T14:34:51.820Z,24.87
2018-10-09T14:37:20.737Z,25.03
2018-10-09T14:39:49.493Z,22.03
2018-10-09T14:42:18.407Z,22.40
2018-10-09T14:44:47.319Z,22.30
2018-10-09T14:47:16.098Z,20.40
2018-10-09T14:49:44.536Z,20.20
2018-10-09T14:52:12.969Z,18.83
2018-10-09T14:54:41.548Z,24.40
2018-10-09T14:57:09.944Z,24.37
2018-10-09T14:59:38.405Z,28.53
2018-10-09T15:02:06.857Z,27.43
2018-10-09T15:04:35.885Z,23.63
2018-10-09T15:07:04.328Z,23.00
2018-10-09T15:09:32.810Z,23.37
2018-10-09T15:12:01.221Z,23.17
2018-10-09T15:14:29.624Z,22.17
2018-10-09T15:16:58.099Z,20.57
2018-10-09T15:19:26.500Z,19.87
2018-10-09T15:21:54.907Z,18.47
2018-10-09T15:24:23.405Z,19.73
2018-10-09T15:26:51.798Z,18.47
2018-10-09T15:29:20.272Z,16.63
2018-10-09T15:31:48.700Z,22.07
2018-10-09T15:34:17.135Z,35.40
2018-10-09T15:36:45.530Z,24.80
2018-10-09T15:39:14.262Z,27.27
2018-10-09T15:41:43.413Z,22.20
2018-10-09T15:44:11.756Z,18.93
2018-10-09T15:46:40.217Z,19.37
2018-10-09T15:49:08.576Z,16.40
2018-10-09T15:51:36.992Z,16.73
2018-10-09T15:54:05.492Z,18.37
2018-10-09T15:56:34.000Z,15.57
2018-10-09T15:59:02.380Z,19.07
2018-10-09T16:01:31.071Z,22.73
2018-10-09T16:03:59.561Z,30.07
2018-10-09T16:06:27.955Z,17.80
2018-10-09T16:08:56.387Z,20.30
2018-10-09T16:11:25.160Z,22.37
2018-10-09T16:13:53.665Z,19.70
2018-10-09T16:16:22.072Z,18.13
2018-10-09T16:18:50.493Z,16.67
2018-10-09T16:21:18.922Z,20.67
2018-10-09T16:23:47.332Z,56.60
2018-10-09T16:26:15.865Z,62.77
2018-10-09T16:28:44.401Z,82.67
2018-10-09T16:31:12.932Z,62.37
2018-10-09T16:33:41.339Z,49.77
2018-10-09T16:36:09.826Z,45.20
2018-10-09T16:38:38.226Z,39.00
2018-10-09T16:41:06.867Z,39.33
2018-10-09T16:43:35.484Z,38.03
2018-10-09T16:46:04.555Z,35.97
2018-10-09T16:48:32.994Z,35.57
2018-10-09T16:51:01.494Z,33.63
2018-10-09T16:53:30.108Z,35.33
2018-10-09T16:55:58.667Z,33.00
2018-10-09T16:58:27.202Z,33.47
2018-10-09T17:00:55.629Z,31.43
2018-10-09T17:03:24.097Z,31.27
2018-10-09T17:05:52.558Z,29.30
2018-10-09T17:08:20.964Z,28.40
2018-10-09T17:10:49.552Z,26.47
2018-10-09T17:13:18.969Z,28.47
2018-10-09T17:15:47.455Z,27.07
2018-10-09T17:18:15.848Z,27.93
2018-10-09T17:20:44.542Z,27.57
2018-10-09T17:23:12.938Z,26.80
2018-10-09T17:25:41.336Z,25.70
2018-10-09T17:28:09.865Z,24.87
2018-10-09T17:30:38.316Z,23.97
2018-10-09T17:33:06.760Z,22.33
2018-10-09T17:35:38.315Z,21.60
2018-10-09T17:38:06.820Z,20.97
2018-10-09T17:40:35.232Z,22.33
2018-10-09T17:43:03.719Z,21.80
2018-10-09T17:45:32.220Z,21.93
2018-10-09T17:48:00.624Z,21.33
2018-10-09T17:50:29.028Z,20.57
2018-10-09T17:52:57.421Z,19.57
2018-10-09T17:55:25.816Z,19.10
2018-10-09T17:57:54.325Z,21.73
2018-10-09T18:00:22.774Z,24.03
2018-10-09T18:02:51.187Z,36.07
2018-10-09T18:05:19.600Z,43.67
2018-10-09T18:07:48.085Z,34.97
2018-10-09T18:10:16.591Z,33.77
2018-10-09T18:12:45.040Z,26.57
2018-10-09T18:15:14.741Z,27.60
2018-10-09T18:17:43.377Z,26.80
2018-10-09T18:20:11.834Z,25.27
2018-10-09T18:22:40.325Z,24.70
2018-10-09T18:25:09.270Z,23.87
2018-10-09T18:27:37.685Z,29.77
2018-10-09T18:30:06.311Z,25.07
2018-10-09T18:32:34.821Z,24.30
2018-10-09T18:35:03.264Z,24.37
2018-10-09T18:37:31.704Z,23.60
2018-10-09T18:40:00.127Z,23.43
2018-10-09T18:42:28.602Z,23.37
2018-10-09T18:44:57.120Z,22.47
2018-10-09T18:47:31.034Z,23.13
2018-10-09T18:49:59.625Z,22.77
2018-10-09T18:52:28.076Z,22.13
2018-10-09T18:54:56.916Z,20.43
2018-10-09T18:57:25.514Z,19.47
2018-10-09T18:59:53.942Z,19.13
2018-10-09T19:02:22.418Z,38.90
2018-10-09T19:04:51.070Z,54.23
2018-10-09T19:07:19.466Z,58.53
2018-10-09T19:09:47.956Z,55.63
2018-10-09T19:12:16.531Z,48.37
2018-10-09T19:14:45.020Z,45.33
2018-10-09T19:17:13.497Z,42.43
2018-10-09T19:19:42.061Z,39.97
2018-10-09T19:22:10.561Z,39.37
2018-10-09T19:24:39.097Z,35.83
2018-10-09T19:27:07.717Z,37.83
2018-10-09T19:29:36.171Z,35.07
2018-10-09T19:32:04.624Z,76.07
2018-10-09T19:34:32.999Z,69.93
2018-10-09T19:37:01.510Z,78.07
2018-10-09T19:39:30.097Z,86.40
2018-10-09T19:41:58.544Z,73.93
2018-10-09T19:44:27.077Z,87.27
2018-10-09T19:46:55.632Z,100.30
2018-10-09T19:49:24.169Z,91.30
2018-10-09T19:51:52.564Z,88.27
2018-10-09T19:54:21.052Z,85.33
2018-10-09T19:56:49.484Z,70.30
2018-10-09T19:59:18.007Z,70.43
2018-10-09T20:01:46.379Z,67.20
2018-10-09T20:04:15.051Z,65.43
2018-10-09T20:06:43.580Z,66.77
2018-10-09T20:09:13.907Z,70.03
2018-10-09T20:11:42.622Z,63.63
2018-10-09T20:14:12.812Z,59.50
2018-10-09T20:16:41.249Z,63.03
2018-10-09T20:19:10.555Z,66.63
2018-10-09T20:21:39.272Z,59.43
2018-10-09T20:24:08.179Z,60.90
2018-10-09T20:26:37.051Z,57.70
2018-10-09T20:29:05.847Z,62.03
2018-10-09T20:31:34.780Z,62.10
2018-10-09T20:34:03.175Z,60.77
2018-10-09T20:36:32.025Z,61.97
2018-10-09T20:39:00.585Z,57.90
2018-10-09T20:41:28.993Z,54.50
2018-10-09T20:43:57.681Z,52.27
2018-10-09T20:46:26.510Z,52.87
2018-10-09T20:48:54.900Z,55.33
2018-10-09T20:51:23.455Z,55.47
2018-10-09T20:53:51.894Z,55.30
2018-10-09T20:56:20.279Z,55.20
2018-10-09T20:58:48.871Z,52.43
2018-10-09T21:01:17.360Z,55.30
2018-10-09T21:03:45.796Z,54.00
2018-10-09T21:06:14.421Z,51.00
2018-10-09T21:08:43.161Z,49.93
2018-10-09T21:11:11.742Z,49.30
2018-10-09T21:13:40.350Z,49.63
2018-10-09T21:16:08.763Z,52.43
2018-10-09T21:18:37.217Z,53.03
2018-10-09T21:21:05.857Z,51.03
2018-10-09T21:23:34.754Z,48.10
2018-10-09T21:26:03.536Z,56.57
2018-10-09T21:28:32.141Z,53.90
2018-10-09T21:31:00.555Z,60.20
2018-10-09T21:33:28.979Z,55.43
2018-10-09T21:35:57.593Z,58.70
2018-10-09T21:38:26.415Z,55.60
2018-10-09T21:40:54.947Z,56.17
2018-10-09T21:43:23.320Z,54.13
2018-10-09T21:45:51.987Z,54.53
2018-10-09T21:48:20.455Z,52.90
2018-10-09T21:50:48.951Z,50.77
2018-10-09T21:53:17.652Z,49.20
2018-10-09T21:55:46.228Z,56.47
2018-10-09T21:58:15.177Z,54.53
2018-10-09T22:00:49.107Z,72.47
2018-10-09T22:03:17.581Z,63.93
2018-10-09T22:05:45.953Z,52.87
2018-10-09T22:08:14.606Z,51.13
2018-10-09T22:10:43.104Z,49.93
2018-10-09T22:13:11.475Z,55.60
2018-10-09T22:15:40.092Z,51.13
2018-10-09T22:18:08.545Z,49.97
2018-10-09T22:20:37.053Z,45.70
2018-10-09T22:23:05.498Z,43.93
2018-10-09T22:25:33.998Z,45.37
2018-10-09T22:28:02.403Z,48.83
2018-10-09T22:30:30.951Z,54.93
2018-10-09T22:32:59.382Z,49.77
2018-10-09T22:35:27.768Z,46.43
2018-10-09T22:37:56.327Z,46.73
2018-10-09T22:40:24.975Z,41.13
2018-10-09T22:42:53.668Z,39.07
2018-10-09T22:45:22.160Z,38.23
2018-10-09T22:47:50.780Z,40.57
2018-10-09T22:50:19.262Z,40.40
2018-10-09T22:52:47.971Z,41.07
2018-10-09T22:55:16.477Z,44.13
2018-10-09T22:57:44.955Z,41.70
2018-10-09T23:00:13.969Z,42.47
2018-10-09T23:02:42.482Z,42.47
2018-10-09T23:05:10.871Z,42.23
2018-10-09T23:07:39.547Z,41.83
2018-10-09T23:10:07.995Z,43.90
2018-10-09T23:12:36.499Z,49.57
2018-10-09T23:15:05.692Z,53.37
2018-10-09T23:17:34.090Z,64.53
2018-10-09T23:20:02.593Z,64.13
2018-10-09T23:22:31.007Z,61.53
2018-10-09T23:24:59.411Z,60.87
2018-10-09T23:27:27.794Z,56.33
2018-10-09T23:29:56.186Z,58.60
2018-10-09T23:32:24.562Z,57.17
2018-10-09T23:34:52.957Z,53.30
2018-10-09T23:37:21.314Z,51.97
2018-10-09T23:39:49.898Z,48.80
2018-10-09T23:42:18.286Z,49.53
2018-10-09T23:44:46.656Z,51.40
2018-10-09T23:47:15.097Z,53.97
2018-10-09T23:49:43.482Z,52.27
2018-10-09T23:52:11.891Z,57.10
2018-10-09T23:54:40.277Z,59.83
2018-10-09T23:57:08.739Z,63.93
2018-10-09T23:59:37.099Z,65.67
